Time;durP1;ratioP1;P1;durP2;ratioP2;P2;SDS_P1;SDS_P2;PMS_P1;PMS_P2;Temp;Humidity;BMP_temperature;BMP_pressure;BME280_temperature;BME280_humidity;BME280_pressure;Samples;Min_cycle;Max_cycle;Signal;HPM_P1;HPM_P2
2022/09/11 00:00:50;;;;;;;35.72;19.27;;;;;;;24.83;100.00;101539.31;5013170;28;20054;-61
2022/09/11 00:03:17;;;;;;;44.33;21.17;;;;;;;25.15;100.00;101535.47;4990780;28;20062;-60
2022/09/11 00:05:43;;;;;;;41.15;20.35;;;;;;;25.02;100.00;101537.66;5001049;28;20019;-61
2022/09/11 00:08:15;;;;;;;35.08;19.73;;;;;;;24.94;100.00;101551.09;4992012;28;20051;-61
2022/09/11 00:10:42;;;;;;;35.23;20.03;;;;;;;24.95;100.00;101539.88;4998273;28;20038;-61
2022/09/11 00:13:10;;;;;;;33.83;20.87;;;;;;;24.99;100.00;101542.84;4992487;28;20035;-61
2022/09/11 00:15:41;;;;;;;39.33;21.67;;;;;;;25.02;100.00;101540.41;5009113;28;20043;-61
2022/09/11 00:18:09;;;;;;;40.43;22.50;;;;;;;25.05;100.00;101547.25;4992302;28;20031;-62
2022/09/11 00:20:37;;;;;;;42.47;25.03;;;;;;;24.99;100.00;101538.22;4999771;28;20026;-61
2022/09/11 00:23:04;;;;;;;39.30;23.30;;;;;;;24.96;100.00;101541.50;4997906;28;20057;-61
2022/09/11 00:25:34;;;;;;;36.93;20.73;;;;;;;24.62;100.00;101540.16;5003217;28;20030;-62
2022/09/11 00:28:00;;;;;;;39.33;21.13;;;;;;;24.75;100.00;101544.28;5004587;28;20035;-60
2022/09/11 00:30:26;;;;;;;;;;;;;;;24.71;100.00;101551.34;5008080;28;20113;-61
2022/09/11 00:32:52;;;;;;;37.23;19.80;;;;;;;24.82;100.00;101543.16;4993476;28;19925;-62
2022/09/11 00:35:17;;;;;;;39.67;22.77;;;;;;;24.71;100.00;101554.09;4997330;28;20038;-62
2022/09/11 00:37:43;;;;;;;41.63;22.30;;;;;;;24.73;100.00;101549.16;4998213;28;20040;-60
2022/09/11 00:40:09;;;;;;;38.35;21.30;;;;;;;24.74;100.00;101548.06;4998785;28;20038;-61
2022/09/11 00:42:35;;;;;;;39.00;21.95;;;;;;;24.73;100.00;101546.44;5000332;28;20098;-62
2022/09/11 00:45:06;;;;;;;38.03;22.50;;;;;;;24.70;100.00;101546.97;5000512;28;20042;-62
2022/09/11 00:47:32;;;;;;;36.43;21.67;;;;;;;24.67;100.00;101555.72;5008979;28;20044;-60
2022/09/11 00:50:08;;;;;;;35.22;21.75;;;;;;;24.55;100.00;101563.38;5009747;28;20040;-61
2022/09/11 00:52:37;;;;;;;38.13;20.77;;;;;;;24.61;100.00;101557.66;5022448;28;20039;-61
2022/09/11 00:55:11;;;;;;;36.93;21.00;;;;;;;24.62;100.00;101558.44;5018608;28;20041;-61
2022/09/11 00:57:43;;;;;;;37.80;23.23;;;;;;;24.61;100.00;101554.91;4988165;28;20064;-61
2022/09/11 01:00:11;;;;;;;40.13;21.77;;;;;;;24.25;100.00;101549.41;5012964;28;20056;-61
2022/09/11 01:02:41;;;;;;;37.77;22.07;;;;;;;24.16;100.00;101549.13;5000228;28;20072;-60
2022/09/11 01:05:08;;;;;;;40.03;23.10;;;;;;;24.12;100.00;101541.75;5001932;28;20039;-59
2022/09/11 01:07:35;;;;;;;;;;;;;;;24.12;100.00;101547.22;4984487;28;20039;-58
2022/09/11 01:10:02;;;;;;;42.03;23.23;;;;;;;24.34;100.00;101558.72;5005022;28;19921;-58
2022/09/11 01:13:05;;;;;;;40.63;21.70;;;;;;;24.47;100.00;101557.38;5003015;28;20038;-60
2022/09/11 01:15:52;;;;;;;40.43;22.90;;;;;;;24.53;100.00;101554.63;4990144;28;20092;-59
2022/09/11 01:18:21;;;;;;;41.08;22.13;;;;;;;24.54;100.00;101557.06;4989889;28;20094;-60
2022/09/11 01:21:07;;;;;;;41.37;22.30;;;;;;;24.29;100.00;101557.88;4992791;28;20035;-60
2022/09/11 01:24:07;;;;;;;48.20;23.73;;;;;;;24.06;100.00;101560.03;5007011;28;20262;-60
2022/09/11 01:26:41;;;;;;;42.27;20.37;;;;;;;24.14;100.00;101555.97;4985310;28;20053;-50
2022/09/11 01:29:18;;;;;;;35.47;21.50;;;;;;;24.03;100.00;101555.13;4997866;28;20036;-48
2022/09/11 01:32:03;;;;;;;41.80;22.43;;;;;;;24.08;100.00;101562.47;5003648;28;20274;-49
2022/09/11 01:34:43;;;;;;;43.13;22.50;;;;;;;24.14;100.00;101556.75;4998336;28;20118;-47
2022/09/11 01:37:19;;;;;;;49.23;26.57;;;;;;;24.12;100.00;101569.88;4991623;28;20285;-51
2022/09/11 01:39:52;;;;;;;43.08;23.83;;;;;;;23.96;100.00;101566.25;5009198;28;20035;-51
2022/09/11 01:42:19;;;;;;;48.03;25.07;;;;;;;23.89;100.00;101561.03;4990476;28;20054;-46
2022/09/11 01:44:55;;;;;;;47.67;25.67;;;;;;;23.95;100.00;101563.78;5001619;28;20034;-50
2022/09/11 01:47:21;;;;;;;43.93;24.67;;;;;;;23.95;100.00;101571.97;5030428;28;20059;-50
2022/09/11 01:50:01;;;;;;;47.83;23.52;;;;;;;23.78;100.00;101570.31;5059864;28;20286;-44
2022/09/11 01:52:33;;;;;;;44.27;25.77;;;;;;;23.83;100.00;101572.22;5053640;28;20040;-47
2022/09/11 01:55:04;;;;;;;49.03;24.10;;;;;;;23.80;100.00;101570.00;5051784;28;20282;-50
2022/09/11 01:57:36;;;;;;;46.73;24.70;;;;;;;23.75;100.00;101579.84;5055006;28;20266;-49
2022/09/11 02:00:08;;;;;;;52.07;25.93;;;;;;;23.77;100.00;101574.13;5057826;28;20325;-50
2022/09/11 02:02:51;;;;;;;48.60;24.67;;;;;;;23.68;100.00;101571.06;5054968;28;20286;-50
2022/09/11 02:05:33;;;;;;;50.40;26.08;;;;;;;23.67;100.00;101574.06;5064095;28;20270;-47
2022/09/11 02:08:17;;;;;;;50.33;26.47;;;;;;;23.72;100.00;101576.81;5056028;28;20147;-52
2022/09/11 02:10:53;;;;;;;51.37;25.13;;;;;;;23.80;100.00;101572.75;5060175;28;20300;-46
2022/09/11 02:13:41;;;;;;;46.60;23.97;;;;;;;23.74;100.00;101563.69;5044304;28;20292;-50
2022/09/11 02:16:28;;;;;;;49.53;25.03;;;;;;;23.72;100.00;101565.88;5060538;28;20313;-49
2022/09/11 02:19:04;;;;;;;46.87;24.07;;;;;;;23.97;100.00;101572.53;5064560;28;20337;-50
2022/09/11 02:21:31;;;;;;;48.00;26.23;;;;;;;23.81;100.00;101577.94;5064163;28;20268;-51
2022/09/11 02:23:58;;;;;;;47.17;24.83;;;;;;;23.71;100.00;101570.53;5061771;28;20376;-46
2022/09/11 02:26:27;;;;;;;48.87;25.27;;;;;;;23.83;100.00;101569.47;5064955;28;20263;-46
2022/09/11 02:28:53;;;;;;;51.30;25.73;;;;;;;23.76;100.00;101581.47;5060017;28;20282;-47
2022/09/11 02:31:20;;;;;;;49.00;26.10;;;;;;;23.70;100.00;101578.97;5059669;28;20263;-46
2022/09/11 02:33:47;;;;;;;48.53;24.33;;;;;;;23.62;100.00;101578.41;5061909;28;20041;-49
2022/09/11 02:36:30;;;;;;;43.72;25.45;;;;;;;23.63;100.00;101585.53;5059966;28;20283;-50
2022/09/11 02:39:27;;;;;;;49.47;26.10;;;;;;;23.52;100.00;101591.19;5058860;28;20034;-50
2022/09/11 02:41:55;;;;;;;45.97;25.27;;;;;;;23.96;100.00;101593.56;5060867;28;20285;-48
2022/09/11 02:44:36;;;;;;;48.80;25.10;;;;;;;23.66;100.00;101597.00;5060188;28;20293;-50
2022/09/11 02:47:11;;;;;;;48.57;25.13;;;;;;;23.51;100.00;101598.53;5022174;28;20284;-47
2022/09/11 02:49:50;;;;;;;58.50;27.23;;;;;;;23.43;100.00;101599.88;4986038;28;20311;-49
2022/09/11 02:52:29;;;;;;;43.10;23.27;;;;;;;23.46;100.00;101595.78;4984062;28;20336;-51
2022/09/11 02:55:06;;;;;;;51.50;26.83;;;;;;;23.39;100.00;101604.22;4977145;28;20304;-50
2022/09/11 02:57:41;;;;;;;50.43;26.33;;;;;;;23.71;100.00;101599.75;4978394;28;20292;-48
2022/09/11 03:00:09;;;;;;;47.07;25.60;;;;;;;23.85;100.00;101603.63;4981368;28;20317;-49
2022/09/11 03:02:38;;;;;;;48.50;26.43;;;;;;;23.69;100.00;101601.91;4983229;28;20294;-50
2022/09/11 03:05:06;;;;;;;45.97;25.07;;;;;;;24.00;100.00;101600.13;4975580;28;20266;-45
2022/09/11 03:07:32;;;;;;;47.10;26.53;;;;;;;23.73;100.00;101605.75;4982269;28;20289;-46
2022/09/11 03:09:58;;;;;;;44.63;24.00;;;;;;;23.52;100.00;101602.91;4981929;28;20305;-48
2022/09/11 03:12:25;;;;;;;50.78;26.20;;;;;;;23.73;100.00;101611.22;4973826;28;20285;-48
2022/09/11 03:14:52;;;;;;;47.30;24.40;;;;;;;24.00;100.00;101604.78;4981303;28;20039;-48
2022/09/11 03:17:20;;;;;;;45.37;24.87;;;;;;;23.89;100.00;101609.41;4984220;28;20294;-47
2022/09/11 03:19:46;;;;;;;48.17;25.53;;;;;;;23.74;100.00;101610.97;4985848;28;20777;-46
2022/09/11 03:22:11;;;;;;;45.37;24.37;;;;;;;23.76;100.00;101610.72;4986249;28;20300;-45
2022/09/11 03:24:38;;;;;;;48.28;25.10;;;;;;;23.45;100.00;101613.25;4985702;28;20057;-51
2022/09/11 03:27:04;;;;;;;50.40;26.03;;;;;;;23.71;100.00;101603.31;4977502;28;20034;-49
2022/09/11 03:29:30;;;;;;;43.78;24.42;;;;;;;23.59;100.00;101610.88;4983545;28;20278;-47
2022/09/11 03:31:58;;;;;;;46.97;23.83;;;;;;;23.84;100.00;101603.88;4982239;28;20466;-47
2022/09/11 03:34:24;;;;;;;43.40;24.23;;;;;;;23.71;100.00;101607.94;4976752;28;20349;-51
2022/09/11 03:36:51;;;;;;;53.50;25.13;;;;;;;23.47;100.00;101609.19;4982018;28;20303;-47
2022/09/11 03:39:16;;;;;;;46.50;25.73;;;;;;;23.42;100.00;101609.16;4973614;28;20034;-47
2022/09/11 03:41:42;;;;;;;38.90;22.50;;;;;;;23.48;100.00;101618.19;4983093;28;20035;-51
2022/09/11 03:44:11;;;;;;;41.58;23.35;;;;;;;23.42;100.00;101616.53;4975294;28;20039;-49
2022/09/11 03:46:37;;;;;;;40.40;23.03;;;;;;;23.51;100.00;101609.47;4978206;28;20038;-48
2022/09/11 03:49:03;;;;;;;39.33;22.25;;;;;;;23.55;100.00;101616.06;4998985;28;20284;-57
2022/09/11 03:51:30;;;;;;;40.00;22.03;;;;;;;23.31;100.00;101619.19;4990450;28;20042;-53
2022/09/11 03:54:00;;;;;;;38.93;22.00;;;;;;;23.30;100.00;101612.09;5000464;28;20375;-54
2022/09/11 03:56:30;;;;;;;39.40;22.13;;;;;;;23.33;100.00;101613.47;4982781;28;20523;-53
2022/09/11 03:58:58;;;;;;;38.17;21.77;;;;;;;23.27;100.00;101611.78;5011079;28;20310;-55
2022/09/11 04:01:26;;;;;;;36.63;20.37;;;;;;;23.75;100.00;101614.50;5023977;28;20698;-52
2022/09/11 04:03:52;;;;;;;36.80;21.40;;;;;;;23.55;100.00;101616.06;4999239;28;20275;-53
2022/09/11 04:06:36;;;;;;;37.50;19.83;;;;;;;23.46;100.00;101621.19;4970366;28;20309;-52
2022/09/11 04:09:03;;;;;;;35.73;20.57;;;;;;;23.40;100.00;101624.16;4986426;28;20285;-51
2022/09/11 04:11:29;;;;;;;35.65;19.75;;;;;;;23.01;100.00;101628.75;4990772;28;20284;-55
2022/09/11 04:13:55;;;;;;;;;;;;;;;23.28;100.00;101627.06;5005683;28;20092;-50
2022/09/11 04:16:22;;;;;;;32.50;19.80;;;;;;;23.29;100.00;101626.78;4997586;28;19936;-55
2022/09/11 04:18:53;;;;;;;34.97;19.40;;;;;;;23.59;100.00;101630.81;5006283;28;20329;-54
2022/09/11 04:21:19;;;;;;;30.90;18.73;;;;;;;23.22;100.00;101628.91;5019174;28;20280;-55
2022/09/11 04:23:52;;;;;;;34.60;19.07;;;;;;;23.48;100.00;101621.75;4998001;28;20336;-55
2022/09/11 04:26:19;;;;;;;31.70;19.40;;;;;;;23.38;100.00;101623.59;5010108;28;20306;-53
2022/09/11 04:28:50;;;;;;;26.70;16.87;;;;;;;23.26;100.00;101621.06;5009290;28;20289;-53
2022/09/11 04:31:16;;;;;;;33.22;19.25;;;;;;;22.96;100.00;101623.25;4995905;28;20276;-55
2022/09/11 04:33:43;;;;;;;34.70;19.97;;;;;;;22.80;100.00;101618.75;4969038;28;20106;-50
2022/09/11 04:36:12;;;;;;;38.15;19.73;;;;;;;22.67;100.00;101626.28;5010649;28;20292;-56
2022/09/11 04:38:39;;;;;;;29.47;18.53;;;;;;;22.67;100.00;101629.00;5026588;28;20028;-54
2022/09/11 04:41:05;;;;;;;33.07;18.63;;;;;;;22.77;100.00;101623.63;4993875;28;20351;-54
2022/09/11 04:43:35;;;;;;;30.63;18.00;;;;;;;22.84;100.00;101620.72;5004083;28;20299;-55
2022/09/11 04:46:05;;;;;;;32.03;18.87;;;;;;;22.69;100.00;101620.56;5010694;28;20268;-54
2022/09/11 04:48:31;;;;;;;29.13;18.27;;;;;;;22.57;100.00;101618.84;5007361;28;20290;-56
2022/09/11 04:51:04;;;;;;;36.20;19.83;;;;;;;22.48;100.00;101625.81;5002804;28;20651;-54
2022/09/11 04:53:31;;;;;;;30.37;18.27;;;;;;;22.49;100.00;101632.94;4996771;28;20275;-54
2022/09/11 04:56:02;;;;;;;28.77;18.03;;;;;;;22.71;100.00;101621.97;5019512;28;20281;-53
2022/09/11 04:58:29;;;;;;;36.43;19.03;;;;;;;22.55;100.00;101618.28;5016499;28;20277;-52
2022/09/11 05:00:55;;;;;;;48.00;20.77;;;;;;;22.49;100.00;101622.84;5015422;28;20274;-52
2022/09/11 05:03:20;;;;;;;32.05;18.10;;;;;;;22.46;100.00;101622.50;5002430;28;20053;-55
2022/09/11 05:05:45;;;;;;;32.00;19.20;;;;;;;22.34;100.00;101625.38;5010135;28;20039;-54
2022/09/11 05:08:12;;;;;;;31.40;18.63;;;;;;;22.43;100.00;101629.28;5014992;28;20035;-53
2022/09/11 05:10:38;;;;;;;31.73;18.63;;;;;;;22.53;100.00;101627.78;4998171;28;20092;-55
2022/09/11 05:13:03;;;;;;;31.35;18.63;;;;;;;22.38;100.00;101642.88;5009283;28;20053;-55
2022/09/11 05:15:33;;;;;;;33.93;18.70;;;;;;;22.31;100.00;101644.94;5017485;28;20065;-56
2022/09/11 05:17:59;;;;;;;29.93;17.50;;;;;;;22.43;100.00;101652.97;5004107;28;20271;-54
2022/09/11 05:20:27;;;;;;;29.67;17.97;;;;;;;22.50;100.00;101650.94;4985731;28;20338;-52
2022/09/11 05:22:53;;;;;;;;;;;;;;;22.35;100.00;101657.81;5008804;28;20268;-54
2022/09/11 05:25:20;;;;;;;28.40;18.00;;;;;;;22.28;100.00;101657.19;4993711;28;19932;-53
2022/09/11 05:27:45;;;;;;;32.10;18.08;;;;;;;22.39;100.00;101662.75;4993060;28;20045;-55
2022/09/11 05:30:11;;;;;;;29.13;16.85;;;;;;;22.33;100.00;101664.59;5007563;28;20041;-52
2022/09/11 05:32:36;;;;;;;29.98;18.35;;;;;;;22.46;100.00;101671.53;5009091;28;20053;-53
2022/09/11 05:35:02;;;;;;;30.67;17.30;;;;;;;22.47;100.00;101671.34;5052624;28;20031;-53
2022/09/11 05:37:28;;;;;;;35.08;17.75;;;;;;;22.53;100.00;101668.66;5025039;28;20098;-53
2022/09/11 05:39:54;;;;;;;28.45;17.00;;;;;;;22.54;100.00;101673.03;5003069;28;20038;-56
2022/09/11 05:42:20;;;;;;;28.70;17.58;;;;;;;22.60;100.00;101672.00;4992372;28;20066;-56
2022/09/11 05:44:51;;;;;;;30.13;18.60;;;;;;;22.67;100.00;101683.53;4986611;28;20038;-53
2022/09/11 05:47:17;;;;;;;;;;;;;;;22.55;100.00;101685.56;4997304;28;20299;-52
2022/09/11 05:49:45;;;;;;;23.83;15.53;;;;;;;22.60;100.00;101683.72;4987106;28;19918;-55
2022/09/11 05:52:11;;;;;;;26.80;17.23;;;;;;;22.94;100.00;101690.88;4974230;28;20274;-51
2022/09/11 05:54:37;;;;;;;27.25;16.50;;;;;;;22.66;100.00;101698.25;4978720;28;20273;-57
2022/09/11 05:57:04;;;;;;;30.50;16.37;;;;;;;22.69;100.00;101695.00;4994757;28;20043;-55
2022/09/11 05:59:31;;;;;;;30.00;17.00;;;;;;;22.65;100.00;101704.78;4973325;28;20261;-55
2022/09/11 06:01:57;;;;;;;29.97;17.63;;;;;;;22.79;100.00;101707.91;4973464;28;20281;-53
2022/09/11 06:04:35;;;;;;;33.83;19.50;;;;;;;22.75;100.00;101704.88;4982297;28;20289;-57
2022/09/11 06:07:00;;;;;;;42.03;20.07;;;;;;;22.63;100.00;101698.75;4992028;28;20288;-54
2022/09/11 06:09:27;;;;;;;36.77;20.27;;;;;;;22.76;100.00;101706.53;4977936;28;20277;-55
2022/09/11 06:11:53;;;;;;;38.78;21.77;;;;;;;23.01;100.00;101707.84;4977303;28;20284;-54
2022/09/11 06:14:18;;;;;;;35.95;18.35;;;;;;;22.91;100.00;101708.56;4983068;28;20032;-53
2022/09/11 06:16:43;;;;;;;32.40;17.58;;;;;;;22.99;100.00;101711.94;4987545;28;20040;-55
2022/09/11 06:19:12;;;;;;;37.37;18.60;;;;;;;23.52;100.00;101720.28;4980274;28;20023;-53
2022/09/11 06:21:39;;;;;;;32.90;17.50;;;;;;;23.41;100.00;101724.03;4972801;28;20276;-56
2022/09/11 06:24:24;;;;;;;24.43;16.17;;;;;;;23.69;100.00;101719.31;4980648;28;20293;-55
2022/09/11 06:26:50;;;;;;;26.67;16.45;;;;;;;23.71;100.00;101726.19;4983677;28;20340;-55
2022/09/11 06:29:16;;;;;;;26.00;16.25;;;;;;;23.18;100.00;101720.56;4973209;28;20054;-51
2022/09/11 06:31:50;;;;;;;29.40;17.20;;;;;;;23.79;100.00;101719.41;4985806;28;20039;-56
2022/09/11 06:34:18;;;;;;;30.70;17.53;;;;;;;24.13;100.00;101724.53;4978317;28;20272;-53
2022/09/11 06:36:46;;;;;;;31.50;17.47;;;;;;;24.47;100.00;101724.13;4974264;28;20265;-53
2022/09/11 06:39:11;;;;;;;;;;;;;;;24.74;100.00;101730.47;4979923;28;20031;-59
2022/09/11 06:41:37;;;;;;;38.10;18.13;;;;;;;24.06;100.00;101730.22;4974322;28;19914;-54
2022/09/11 06:44:09;;;;;;;31.30;19.20;;;;;;;23.77;100.00;101722.38;4995333;28;20048;-54
2022/09/11 06:46:36;;;;;;;28.73;16.97;;;;;;;24.02;100.00;101728.31;4995092;28;20287;-54
2022/09/11 06:49:03;;;;;;;29.52;17.48;;;;;;;24.14;100.00;101736.28;5059983;28;20332;-55
2022/09/11 06:51:29;;;;;;;;;;;;;;;24.27;100.00;101740.44;5056121;28;20025;-55
2022/09/11 06:53:58;;;;;;;40.92;17.48;;;;;;;24.49;100.00;101742.97;5051814;28;19917;-55
2022/09/11 06:56:31;;;;;;;64.47;19.60;;;;;;;24.67;100.00;101738.94;5059893;28;20033;-56
2022/09/11 06:58:57;;;;;;;67.70;23.07;;;;;;;24.80;100.00;101747.75;5057686;28;20033;-52
2022/09/11 07:01:24;;;;;;;58.77;19.77;;;;;;;24.87;100.00;101742.84;5055457;28;20029;-55
2022/09/11 07:03:57;;;;;;;74.13;20.57;;;;;;;25.16;100.00;101745.88;5064086;28;20029;-53
2022/09/11 07:06:26;;;;;;;43.40;19.70;;;;;;;24.84;100.00;101749.69;5060561;28;20029;-56
2022/09/11 07:08:59;;;;;;;58.47;23.03;;;;;;;25.38;100.00;101747.53;5055313;28;20037;-55
2022/09/11 07:11:34;;;;;;;53.33;28.70;;;;;;;25.10;100.00;101743.41;5058859;28;20048;-56
2022/09/11 07:14:04;;;;;;;43.37;19.90;;;;;;;25.19;100.00;101750.00;5055869;28;20052;-56
2022/09/11 07:16:33;;;;;;;40.47;20.83;;;;;;;25.45;100.00;101753.56;5061483;28;20088;-53
2022/09/11 07:19:08;;;;;;;37.90;19.70;;;;;;;25.47;100.00;101739.63;5059980;28;20059;-54
2022/09/11 07:21:36;;;;;;;35.77;19.83;;;;;;;25.62;100.00;101742.38;5062648;28;20029;-54
2022/09/11 07:24:03;;;;;;;42.80;20.10;;;;;;;25.44;100.00;101737.41;5056974;28;20030;-52
2022/09/11 07:26:35;;;;;;;40.50;21.33;;;;;;;25.62;100.00;101749.75;5063752;28;20101;-50
2022/09/11 07:29:06;;;;;;;36.70;19.77;;;;;;;25.20;100.00;101749.72;5062230;28;20105;-53
2022/09/11 07:31:33;;;;;;;40.27;21.20;;;;;;;25.39;100.00;101749.19;5059891;28;20030;-54
2022/09/11 07:34:00;;;;;;;34.33;17.90;;;;;;;25.69;100.00;101757.69;5062725;28;20156;-56
2022/09/11 07:36:30;;;;;;;33.20;16.43;;;;;;;26.05;100.00;101752.94;5060866;28;20033;-54
2022/09/11 07:38:56;;;;;;;27.93;17.07;;;;;;;26.40;100.00;101758.59;5057252;28;20047;-56
2022/09/11 07:41:30;;;;;;;28.13;15.83;;;;;;;26.28;100.00;101769.91;5061392;28;20036;-55
2022/09/11 07:43:59;;;;;;;52.37;26.30;;;;;;;25.84;100.00;101770.53;5062974;28;20029;-53
2022/09/11 07:46:28;;;;;;;32.43;18.57;;;;;;;25.84;100.00;101765.88;5066209;28;20056;-56
2022/09/11 07:48:54;;;;;;;27.80;17.37;;;;;;;26.08;100.00;101768.03;5057739;28;20044;-53
2022/09/11 07:51:19;;;;;;;32.83;20.13;;;;;;;26.37;100.00;101778.38;5060877;28;20029;-55
2022/09/11 07:53:49;;;;;;;35.10;19.67;;;;;;;27.32;100.00;101775.63;5061767;28;20043;-58
2022/09/11 07:56:18;;;;;;;39.63;21.90;;;;;;;27.69;100.00;101783.59;5066756;28;20026;-52
2022/09/11 07:58:46;;;;;;;72.03;40.60;;;;;;;28.03;100.00;101783.53;5058216;28;20053;-56
2022/09/11 08:01:18;;;;;;;44.70;25.87;;;;;;;28.04;100.00;101778.81;5062657;28;20084;-55
2022/09/11 08:03:45;;;;;;;38.23;23.30;;;;;;;27.91;100.00;101785.84;5058295;28;20056;-55
2022/09/11 08:06:18;;;;;;;34.90;20.87;;;;;;;27.91;100.00;101789.44;5056978;28;20043;-55
2022/09/11 08:08:51;;;;;;;40.13;22.47;;;;;;;28.41;100.00;101793.00;5058342;28;20032;-55
2022/09/11 08:11:17;;;;;;;27.37;17.10;;;;;;;28.86;100.00;101787.22;5056013;28;20038;-55
2022/09/11 08:13:46;;;;;;;;;;;;;;;28.47;100.00;101792.66;5055037;28;20044;-54
2022/09/11 08:16:12;;;;;;;25.83;16.90;;;;;;;28.63;100.00;101795.22;5055691;28;19917;-53
2022/09/11 08:18:39;;;;;;;29.33;18.90;;;;;;;28.27;100.00;101787.41;5045598;28;20091;-55
2022/09/11 08:21:10;;;;;;;30.70;17.70;;;;;;;27.49;100.00;101786.19;5052907;28;20033;-54
2022/09/11 08:23:39;;;;;;;36.90;20.90;;;;;;;27.31;100.00;101787.72;5059377;28;20025;-55
2022/09/11 08:26:10;;;;;;;32.43;21.23;;;;;;;27.71;100.00;101793.16;5056231;28;20033;-56
2022/09/11 08:28:44;;;;;;;34.77;21.13;;;;;;;27.36;100.00;101791.53;5060257;28;20030;-56
2022/09/11 08:31:11;;;;;;;37.97;20.90;;;;;;;27.39;100.00;101791.78;5063699;28;20025;-56
2022/09/11 08:33:38;;;;;;;40.20;22.23;;;;;;;27.50;100.00;101798.00;5060450;28;20060;-54
2022/09/11 08:36:07;;;;;;;31.03;19.50;;;;;;;27.64;100.00;101798.19;5059877;28;20033;-55
2022/09/11 08:38:40;;;;;;;32.40;20.47;;;;;;;28.00;100.00;101808.00;5058962;28;20097;-52
2022/09/11 08:41:10;;;;;;;30.97;18.63;;;;;;;27.72;100.00;101808.56;5065785;28;20041;-53
2022/09/11 08:43:45;;;;;;;32.67;19.27;;;;;;;28.14;100.00;101811.72;5052917;28;20044;-53
2022/09/11 08:46:11;;;;;;;38.03;20.03;;;;;;;28.54;100.00;101816.22;5054657;28;20033;-54
2022/09/11 08:48:52;;;;;;;43.10;23.53;;;;;;;27.88;100.00;101816.66;5005482;28;20031;-56
2022/09/11 08:51:18;;;;;;;33.33;19.50;;;;;;;28.17;100.00;101822.16;4993768;28;20039;-53
2022/09/11 08:53:45;;;;;;;31.83;19.45;;;;;;;28.53;100.00;101817.34;4993772;28;20034;-52
2022/09/11 08:56:21;;;;;;;37.43;22.10;;;;;;;29.01;100.00;101816.47;5002819;28;20035;-56
2022/09/11 08:59:10;;;;;;;34.87;20.50;;;;;;;28.86;100.00;101817.50;5004369;28;20062;-53
2022/09/11 09:02:09;;;;;;;32.00;20.00;;;;;;;30.00;100.00;101812.91;4991090;28;20035;-54
2022/09/11 09:05:04;;;;;;;42.50;19.77;;;;;;;30.84;100.00;101812.88;4995853;28;20038;-55
2022/09/11 09:07:35;;;;;;;;;;;;;;;31.52;100.00;101826.75;4994380;28;20045;-57
2022/09/11 09:10:18;;;;;;;23.63;14.33;;;;;;;30.97;100.00;101822.25;5011012;28;19914;-54
2022/09/11 09:13:25;;;;;;;27.60;16.87;;;;;;;31.26;100.00;101829.38;4972339;28;20043;-55
2022/09/11 09:16:12;;;;;;;25.30;15.30;;;;;;;32.25;96.89;101830.38;5007665;28;20034;-55
2022/09/11 09:19:03;;;;;;;21.10;14.33;;;;;;;31.86;95.63;101824.53;4986244;28;20029;-54
2022/09/11 09:21:54;;;;;;;22.60;13.70;;;;;;;31.82;96.23;101840.94;4997943;28;20031;-56
2022/09/11 09:24:20;;;;;;;25.67;14.82;;;;;;;32.82;91.04;101832.31;5003253;28;20498;-57
2022/09/11 09:26:55;;;;;;;26.35;16.73;;;;;;;33.04;88.13;101834.16;5005914;28;20099;-56
2022/09/11 09:29:27;;;;;;;23.80;15.43;;;;;;;33.54;84.07;101845.88;5007647;28;20045;-57
2022/09/11 09:31:58;;;;;;;31.75;15.35;;;;;;;34.04;79.45;101846.41;4994557;28;20041;-56
2022/09/11 09:34:30;;;;;;;21.52;14.13;;;;;;;34.56;79.08;101850.06;5023821;28;20042;-57
2022/09/11 09:37:06;;;;;;;20.40;13.88;;;;;;;34.43;75.41;101847.19;5003827;28;20033;-58
2022/09/11 09:39:35;;;;;;;22.58;12.65;;;;;;;35.04;72.22;101853.53;5002599;28;20030;-54
2022/09/11 09:42:20;;;;;;;17.38;10.93;;;;;;;33.79;77.56;101856.41;5000248;28;20051;-57
2022/09/11 09:44:49;;;;;;;18.55;12.02;;;;;;;33.31;78.33;101848.00;5020078;28;20044;-58
2022/09/11 09:47:14;;;;;;;20.08;14.38;;;;;;;33.08;79.19;101844.59;5001960;28;20055;-55
2022/09/11 09:49:41;;;;;;;22.48;12.73;;;;;;;32.84;82.15;101841.13;5002640;28;20042;-56
2022/09/11 09:52:23;;;;;;;28.73;16.27;;;;;;;32.80;82.02;101853.19;4996515;28;20034;-56
2022/09/11 09:54:55;;;;;;;23.23;15.32;;;;;;;32.70;83.11;101846.81;4994977;28;20034;-57
2022/09/11 09:57:24;;;;;;;25.67;15.38;;;;;;;32.71;81.57;101842.09;4994538;28;20035;-58
2022/09/11 10:00:05;;;;;;;17.92;10.90;;;;;;;34.38;74.32;101847.41;5004735;28;20027;-56
2022/09/11 10:02:47;;;;;;;16.05;10.88;;;;;;;35.42;67.93;101851.69;4991686;28;20043;-54
2022/09/11 10:05:19;;;;;;;15.40;9.18;;;;;;;36.76;59.25;101850.53;5008091;28;20102;-56
2022/09/11 10:07:47;;;;;;;15.50;8.88;;;;;;;37.96;53.92;101859.41;4991202;28;20045;-57
2022/09/11 10:10:22;;;;;;;13.48;8.23;;;;;;;38.04;50.61;101866.81;5009748;28;20034;-55
2022/09/11 10:12:49;;;;;;;13.27;8.43;;;;;;;36.92;54.28;101853.41;5008452;28;20031;-53
2022/09/11 10:15:21;;;;;;;14.93;8.25;;;;;;;37.65;52.52;101859.03;4995354;28;20102;-56
2022/09/11 10:17:47;;;;;;;12.65;7.75;;;;;;;38.45;50.61;101861.03;4996869;28;20027;-54
2022/09/11 10:20:20;;;;;;;9.68;6.50;;;;;;;38.07;51.18;101863.31;4996215;28;20031;-56
2022/09/11 10:22:46;;;;;;;10.10;6.38;;;;;;;39.36;49.30;101866.53;5012412;28;20032;-56
2022/09/11 10:25:42;;;;;;;11.93;7.78;;;;;;;39.88;47.62;101865.44;4992957;28;20051;-53
2022/09/11 10:28:29;;;;;;;10.70;7.07;;;;;;;39.90;47.45;101863.91;4990312;28;20031;-53
2022/09/11 10:30:58;;;;;;;10.48;6.68;;;;;;;39.28;47.81;101868.38;4996378;28;20042;-56
2022/09/11 10:33:40;;;;;;;9.02;5.80;;;;;;;38.78;47.33;101864.53;4996100;28;20035;-55
2022/09/11 10:36:08;;;;;;;9.75;6.10;;;;;;;38.84;46.59;101863.84;4994986;28;20039;-55
2022/09/11 10:38:45;;;;;;;10.00;6.75;;;;;;;39.56;46.30;101863.69;4995578;28;20031;-52
2022/09/11 10:41:20;;;;;;;8.30;4.95;;;;;;;38.59;44.66;101857.75;5002291;28;20060;-55
2022/09/11 10:44:06;;;;;;;9.60;5.50;;;;;;;38.34;45.10;101857.97;4997022;28;20027;-54
2022/09/11 10:46:40;;;;;;;7.65;4.70;;;;;;;39.06;46.55;101855.16;4999369;28;20035;-49
2022/09/11 10:49:21;;;;;;;10.23;4.90;;;;;;;38.91;43.20;101857.63;5006475;28;20038;-54
2022/09/11 10:52:01;;;;;;;8.00;4.85;;;;;;;40.10;43.68;101858.22;5008012;28;20039;-57
2022/09/11 10:54:57;;;;;;;8.80;4.57;;;;;;;40.68;43.14;101864.66;5017271;28;20034;-52
2022/09/11 10:57:43;;;;;;;8.43;3.67;;;;;;;40.68;40.30;101867.47;5005907;28;20027;-53
2022/09/11 11:00:18;;;;;;;8.95;4.45;;;;;;;40.78;41.28;101858.41;4995693;28;20027;-60
2022/09/11 11:02:57;;;;;;;9.27;3.55;;;;;;;40.30;39.60;101861.75;4995099;28;20111;-61
2022/09/11 11:05:56;;;;;;;11.55;4.93;;;;;;;41.34;39.67;101857.88;5006715;28;20038;-61
2022/09/11 11:08:40;;;;;;;14.63;8.85;;;;;;;41.63;38.24;101867.38;5004089;28;20533;-61
2022/09/11 11:11:13;;;;;;;18.95;12.70;;;;;;;41.48;38.16;101860.78;5008260;28;20085;-61
2022/09/11 11:13:59;;;;;;;65.18;39.22;;;;;;;41.54;39.17;101861.25;4992618;28;20061;-59
2022/09/11 11:16:49;;;;;;;31.57;20.53;;;;;;;40.94;40.26;101861.00;4995374;28;20541;-61
2022/09/11 11:19:48;;;;;;;35.33;23.58;;;;;;;42.34;36.63;101868.34;5007361;28;20027;-62
2022/09/11 11:22:49;;;;;;;16.58;10.35;;;;;;;42.93;37.15;101867.47;5004563;28;20050;-60
2022/09/11 11:25:34;;;;;;;11.52;8.40;;;;;;;42.84;34.79;101873.44;4996219;28;20035;-61
2022/09/11 11:28:39;;;;;;;12.48;7.20;;;;;;;42.68;38.25;101858.88;4996121;28;20041;-63